Latest Weather Observations for Bathurst Airport

IDN60801

Issued at 1:35 pm EST Friday 1 August 2014 (issued every 30 minutes, with the page automatically refreshed every 10 minutes)

About weather observations | Map of weather stations | Latest weather observations for NSW | Other Formats
Station Details ID: 063291 Name: BATHURST AIRPORT AWS Lat: -33.41 Lon: 149.65 Height: 744.5 m
Data from the previous 72 hours. | See also: Recent months for locations in New South Wales
Date/Time
EST
Temp
°C
App
Temp
°C
Dew
Point
Rel
Hum
%
Delta-T
°C
Wind Press
QNH
hPa
Press
MSL
hPa
Rain
since 9 am
mm
Dir
 
Spd
km/h
Gust
km/h
Spd
kts
Gust
kts
01/01:30pm 6.9 -1.6 -2.0 53 3.5 WSW 33 43 18 23 1011.2 - 0.0
01/01:00pm 7.6 -0.3 -1.9 51 3.7 W 30 44 16 24 1010.8 1011.2 0.0
01/12:30pm 6.9 -2.9 -2.8 50 3.7 W 39 54 21 29 1010.9 - 0.0
01/12:00pm 7.4 -1.8 -1.3 54 3.5 W 37 52 20 28 1011.1 1011.5 0.0
01/11:30am 7.6 -1.5 -0.6 56 3.3 W 37 48 20 26 1011.3 - 0.0
01/11:14am 6.4 -1.8 -1.0 59 2.9 W 32 50 17 27 1011.4 - 0.0
01/11:00am 6.5 -2.2 -0.7 60 2.9 WSW 35 46 19 25 1011.2 1011.6 0.0
01/10:30am 6.8 -2.1 0.7 65 2.5 W 37 48 20 26 1011.0 - 0.0
01/10:00am 6.6 0.4 2.1 73 1.9 W 24 33 13 18 1010.8 1011.2 0.0
01/09:30am 6.7 0.1 2.0 72 2.0 W 26 43 14 23 1010.6 - 0.0
01/09:23am 7.0 1.0 3.1 76 1.7 W 24 30 13 16 1010.5 - 0.0
01/09:00am 6.8 2.2 3.9 82 1.3 WNW 17 20 9 11 1010.1 1010.9 0.0
01/08:30am 6.6 2.1 4.3 85 1.0 WNW 17 24 9 13 1010.0 - 0.0
01/08:00am 6.3 2.1 4.0 85 1.0 W 15 26 8 14 1009.8 1010.6 0.0
01/07:31am 6.1 2.2 3.6 84 1.1 W 13 20 7 11 1009.6 - 0.0
01/07:30am 6.0 2.2 3.7 85 1.0 W 13 22 7 12 1009.6 - 0.0
01/07:00am 5.6 1.7 3.6 87 0.9 WNW 13 17 7 9 1009.5 1010.2 0.0
01/06:30am 6.0 2.1 3.5 84 1.1 WSW 13 19 7 10 1009.1 - 0.0
01/06:00am 5.3 1.5 1.8 78 1.5 W 11 15 6 8 1008.6 1009.4 0.0
01/05:30am 6.4 0.9 0.7 67 2.4 W 19 24 10 13 1008.4 - 0.0
01/05:00am 6.8 0.9 -1.1 57 3.1 W 20 24 11 13 1007.9 1008.6 0.0
01/04:30am 8.4 2.0 -1.7 49 4.0 WNW 22 32 12 17 1007.7 - 0.0
01/04:00am 9.3 2.5 -2.0 45 4.5 WNW 24 30 13 16 1007.7 1008.4 0.0
01/03:30am 10.9 2.8 -2.8 38 5.5 NNW 30 39 16 21 1007.3 - 0.0
01/03:00am 11.2 2.7 -2.9 37 5.6 NNW 32 46 17 25 1007.3 1008.1 0.0
01/02:55am 11.5 3.8 -3.0 36 5.8 NNW 28 46 15 25 1007.3 - 0.0
01/02:30am 10.8 3.9 -2.6 39 5.4 NW 24 35 13 19 1008.0 - 0.0
01/02:00am 10.7 3.5 -2.3 40 5.2 NNW 26 39 14 21 1008.2 1008.9 0.0
01/01:30am 10.2 4.1 -2.4 41 5.0 NW 20 30 11 16 1008.6 - 0.0
01/01:00am 9.9 4.0 -2.1 43 4.8 WNW 19 26 10 14 1009.1 1009.8 0.0
01/12:30am 10.7 3.8 -2.3 40 5.2 NW 24 33 13 18 1009.3 - 0.0
01/12:00am 11.3 3.3 -2.5 38 5.6 NW 30 39 16 21 1009.4 1010.1 0.0
 
Date/Time
EST
Temp
°C
App
Temp
°C
Dew
Point
Rel
Hum
%
Delta-T
°C
Wind Press
QNH
hPa
Press
MSL
hPa
Rain
since 9 am
mm
Dir
 
Spd
km/h
Gust
km/h
Spd
kts
Gust
kts
31/11:30pm 12.0 3.6 -2.6 36 5.9 NW 32 48 17 26 1009.5 - 0.0
31/11:00pm 11.4 3.0 -2.4 38 5.6 NNW 32 39 17 21 1009.6 1010.4 0.0
31/10:30pm 11.1 3.1 -2.0 40 5.3 NNW 30 39 16 21 1009.4 - 0.0
31/10:00pm 11.1 4.4 -1.3 42 5.1 NNW 24 33 13 18 1009.8 1010.6 0.0
31/09:30pm 11.3 3.5 -1.1 42 5.2 NNW 30 39 16 21 1010.0 - 0.0
31/09:00pm 11.4 2.7 -0.4 44 5.0 NNW 35 46 19 25 1009.9 1010.7 0.0
31/08:30pm 10.6 2.6 0.1 48 4.5 NNW 32 39 17 21 1010.3 - 0.0
31/08:00pm 10.9 2.9 0.6 49 4.4 NNW 32 41 17 22 1010.5 1011.2 0.0
31/07:30pm 11.1 3.2 0.8 49 4.5 NNW 32 37 17 20 1010.6 - 0.0
31/07:00pm 11.4 3.9 1.4 50 4.4 NNW 30 35 16 19 1010.6 1011.3 0.0
31/06:30pm 11.7 4.2 1.4 49 4.5 NNW 30 35 16 19 1010.6 - 0.0
31/06:00pm 11.5 4.4 1.2 49 4.5 NNW 28 35 15 19 1010.4 1011.1 0.0
31/05:30pm 12.5 4.4 0.9 45 5.1 NNW 33 43 18 23 1010.4 - 0.0
31/05:00pm 13.8 5.3 0.8 41 5.8 NNW 35 43 19 23 1010.8 1011.6 0.0
31/04:30pm 14.8 5.5 0.3 37 6.4 NNW 39 50 21 27 1011.0 - 0.0
31/04:00pm 15.6 6.7 0.6 36 6.7 NNW 37 48 20 26 1011.2 1012.0 0.0
31/03:30pm 16.2 8.2 1.5 37 6.8 NNW 33 48 18 26 1011.5 - 0.0
31/03:00pm 16.4 6.1 0.5 34 7.2 NW 44 65 24 35 1011.9 1012.7 0.0
31/02:49pm 16.6 6.9 0.7 34 7.2 NNW 41 61 22 33 1012.0 - 0.0
31/02:30pm 16.8 7.2 0.9 34 7.3 NNW 41 56 22 30 1012.2 - 0.0
31/02:09pm 16.9 7.7 1.0 34 7.3 NW 39 57 21 31 1012.6 - 0.0
31/02:00pm 16.7 6.5 1.2 35 7.1 NW 44 57 24 31 1012.7 1013.5 0.0
31/01:30pm 16.8 7.7 1.7 36 7.0 NW 39 59 21 32 1013.2 - 0.0
31/01:01pm 16.7 7.2 1.6 36 7.0 NW 41 59 22 32 1013.8 - 0.0
31/01:00pm 16.7 6.9 2.0 37 6.9 NNW 43 59 23 32 1013.8 1014.6 0.0
31/12:36pm 16.6 7.4 1.1 35 7.1 NW 39 57 21 31 1014.3 - 0.0
31/12:30pm 16.4 7.5 2.8 40 6.4 NNW 39 50 21 27 1014.4 - 0.0
31/12:00pm 16.4 8.7 3.5 42 6.2 NNW 33 50 18 27 1015.1 1015.9 0.0
31/11:53am 16.3 8.7 3.0 41 6.3 NNW 32 50 17 27 1015.3 - 0.0
31/11:30am 15.9 8.5 4.0 45 5.7 NNW 32 46 17 25 1015.8 - 0.0
31/11:13am 15.8 8.8 3.9 45 5.7 NW 30 48 16 26 1016.1 - 0.0
31/11:00am 15.4 8.0 3.9 46 5.5 NNW 32 41 17 22 1016.2 1017.0 0.0
31/10:30am 13.6 7.4 4.2 53 4.5 N 26 32 14 17 1016.5 - 0.0
31/10:00am 12.6 6.5 4.8 59 3.7 N 26 30 14 16 1016.8 1017.7 0.0
31/09:30am 11.1 6.3 5.6 69 2.7 N 20 24 11 13 1017.2 - 0.0
31/09:00am 8.9 5.7 5.1 77 1.8 N 11 13 6 7 1017.6 1018.4 0.0
31/08:30am 8.2 5.0 5.0 80 1.5 N 11 13 6 7 1017.7 - 0.0
31/08:00am 5.6 1.8 3.9 89 0.8 N 13 15 7 8 1017.6 1018.4 0.0
31/07:30am 4.1 0.5 2.9 92 0.5 N 11 15 6 8 1017.5 - 0.0
31/07:00am 4.5 1.3 3.2 91 0.6 N 9 11 5 6 1017.2 1018.1 0.0
31/06:30am 5.0 1.9 3.5 90 0.7 N 9 11 5 6 1017.3 - 0.0
31/06:00am 4.4 1.6 3.4 93 0.4 NNE 7 9 4 5 1017.2 1018.1 0.0
31/05:30am 4.3 1.5 3.3 93 0.4 NNE 7 11 4 6 1017.2 - 0.0
31/05:00am 4.5 1.2 4.4 99 0.0 N 11 13 6 7 1017.2 1018.1 0.0
31/04:30am 4.2 0.8 4.1 99 0.0 N 11 11 6 6 1017.6 - 0.0
31/04:00am 4.2 0.4 3.8 97 0.2 N 13 15 7 8 1017.8 1018.7 0.0
31/03:30am 5.6 1.2 5.0 96 0.3 NNW 17 20 9 11 1017.8 - 0.0
31/03:00am 5.2 0.8 4.8 97 0.2 NNW 17 20 9 11 1017.9 1018.8 0.0
31/02:30am 5.0 1.4 4.9 99 0.0 NNW 13 17 7 9 1018.0 - 0.0
31/02:00am 5.0 2.1 4.9 99 0.0 NNE 9 11 5 6 1018.1 1019.0 0.0
31/01:30am 5.4 1.5 5.3 99 0.0 NNE 15 17 8 9 1018.3 - 0.0
31/01:00am 5.4 1.8 5.1 98 0.1 NNE 13 15 7 8 1018.5 1019.4 0.0
31/12:30am 6.3 3.7 6.2 99 0.0 N 9 11 5 6 1018.7 - 0.0
31/12:00am 5.7 2.6 5.6 99 0.0 N 11 13 6 7 1019.1 1020.0 0.0
 
Date/Time
EST
Temp
°C
App
Temp
°C
Dew
Point
Rel
Hum
%
Delta-T
°C
Wind Press
QNH
hPa
Press
MSL
hPa
Rain
since 9 am
mm
Dir
 
Spd
km/h
Gust
km/h
Spd
kts
Gust
kts
30/11:30pm 4.5 0.8 4.4 99 0.0 N 13 15 7 8 1019.4 - 0.0
30/11:00pm 4.8 1.1 4.7 99 0.0 N 13 13 7 7 1019.5 1020.4 0.0
30/10:30pm 5.0 1.8 4.9 99 0.0 N 11 13 6 7 1019.7 - 0.0
30/10:00pm 5.0 1.8 4.9 99 0.0 N 11 13 6 7 1019.8 1020.7 0.0
30/09:30pm 5.4 2.2 5.1 98 0.1 N 11 13 6 7 1019.9 - 0.0
30/09:00pm 5.7 1.7 4.7 93 0.5 N 15 17 8 9 1019.7 1020.6 0.0
30/08:30pm 7.2 2.9 5.3 88 0.9 NNW 17 20 9 11 1019.6 - 0.0
30/08:00pm 7.2 3.0 5.7 90 0.7 N 17 19 9 10 1019.6 1020.5 0.0
30/07:30pm 7.2 3.7 5.5 89 0.8 N 13 13 7 7 1019.7 - 0.0
30/07:00pm 7.4 5.0 5.4 87 0.9 N 7 11 4 6 1019.7 1020.6 0.0
30/06:30pm 8.2 4.8 5.7 84 1.2 NW 13 15 7 8 1019.5 - 0.0
30/06:00pm 9.2 5.8 5.8 79 1.6 WNW 13 15 7 8 1019.3 1020.2 0.0
30/05:30pm 10.7 6.6 6.3 74 2.1 WNW 17 22 9 12 1019.2 - 0.0
30/05:00pm 11.9 7.8 6.4 69 2.7 WNW 17 22 9 12 1019.1 1020.0 0.0
30/04:30pm 12.6 6.7 6.0 64 3.2 WNW 26 32 14 17 1018.9 - 0.0
30/04:00pm 14.4 8.8 7.2 62 3.7 WNW 26 35 14 19 1018.7 1019.7 0.0
30/03:30pm 13.5 7.4 6.6 63 3.5 WNW 28 39 15 21 1019.1 - 0.0
30/03:00pm 14.6 7.8 6.7 59 4.0 WNW 32 39 17 21 1018.6 1019.5 0.0
30/02:30pm 14.8 10.0 7.4 61 3.8 W 22 30 12 16 1018.7 - 0.0
30/02:00pm 13.2 7.7 6.1 62 3.5 W 24 33 13 18 1019.5 1020.4 0.0
30/01:30pm 13.6 7.1 6.5 62 3.6 W 30 39 16 21 1019.7 - 0.0
30/01:00pm 13.3 7.1 6.2 62 3.5 W 28 35 15 19 1019.8 1020.7 0.0
30/12:30pm 14.0 7.1 6.6 61 3.7 W 32 50 17 27 1020.1 - 0.0
30/12:27pm 13.7 6.6 5.6 58 4.0 W 32 50 17 27 1020.1 - 0.0
30/12:00pm 13.6 6.8 6.7 63 3.5 W 32 41 17 22 1020.6 1021.5 0.0
30/11:30am 13.1 8.7 6.7 65 3.2 WNW 19 32 10 17 1021.1 - 0.0
30/11:00am 12.7 8.7 6.7 67 3.0 WNW 17 26 9 14 1021.5 1022.5 0.0
30/10:30am 10.8 7.0 5.8 71 2.4 N 15 20 8 11 1021.8 - 0.0
30/10:00am 10.0 5.3 5.2 72 2.3 N 19 22 10 12 1021.9 1022.8 0.0
30/09:30am 10.5 7.1 5.7 72 2.3 N 13 17 7 9 1021.8 - 0.0
30/09:00am 9.1 6.2 4.7 74 2.0 N 9 11 5 6 1021.5 1022.5 0.0
30/08:30am 7.5 4.7 3.2 74 1.9 NNE 7 9 4 5 1021.5 - 0.0
30/08:00am 7.0 4.4 3.3 77 1.6 N 6 7 3 4 1021.4 1022.4 0.0
30/07:30am 6.2 3.5 2.7 78 1.5 N 6 7 3 4 1021.1 - 0.0
30/07:00am 6.0 3.2 2.1 76 1.7 N 6 7 3 4 1020.7 1021.6 0.0
30/06:30am 6.9 4.2 2.4 73 1.9 NNW 6 7 3 4 1020.2 - 0.0
30/06:00am 7.1 4.4 2.4 72 2.0 N 6 7 3 4 1020.1 1021.1 0.0
30/05:30am 6.3 3.2 1.4 71 2.1 N 7 9 4 5 1019.9 - 0.0
30/05:00am 5.9 2.8 1.2 72 1.9 N 7 9 4 5 1019.8 1020.7 0.0
30/04:30am 5.5 2.0 1.4 75 1.7 ENE 9 11 5 6 1019.6 - 0.0
30/04:00am 5.0 1.5 1.3 77 1.5 N 9 11 5 6 1019.5 1020.4 0.0
30/03:30am 5.0 1.4 0.8 74 1.7 NNW 9 11 5 6 1019.5 - 0.0
30/03:00am 5.6 2.2 1.7 76 1.6 NNW 9 13 5 7 1019.7 1020.6 0.0
30/02:30am 5.7 1.5 1.4 74 1.8 N 13 17 7 9 1019.7 - 0.0
30/02:00am 6.0 2.6 2.1 76 1.7 N 9 13 5 7 1019.5 1020.4 0.0
30/01:30am 5.8 1.3 2.1 77 1.6 NW 15 17 8 9 1019.7 - 0.0
30/01:00am 6.5 1.1 2.6 76 1.7 NNW 20 22 11 12 1019.4 1020.3 0.0
30/12:30am 6.8 1.5 2.9 76 1.7 NNW 20 22 11 12 1019.4 - 0.0
30/12:00am 6.8 1.4 2.7 75 1.8 NNW 20 20 11 11 1019.5 1020.4 0.0
 
Date/Time
EST
Temp
°C
App
Temp
°C
Dew
Point
Rel
Hum
%
Delta-T
°C
Wind Press
QNH
hPa
Press
MSL
hPa
Rain
since 9 am
mm
Dir
 
Spd
km/h
Gust
km/h
Spd
kts
Gust
kts
29/11:30pm 6.8 1.5 3.2 78 1.6 NNW 20 24 11 13 1019.6 - 0.0
29/11:00pm 6.3 1.5 4.5 88 0.8 N 19 22 10 12 1019.7 1020.6 0.0
29/10:30pm 4.2 0.2 2.9 91 0.6 N 13 15 7 8 1019.7 - 0.0
29/10:00pm 4.2 -0.2 2.7 90 0.6 N 15 15 8 8 1019.7 1020.6 0.0
29/09:30pm 4.9 1.2 2.4 84 1.1 N 11 13 6 7 1019.7 - 0.0
29/09:00pm 6.5 1.3 2.4 75 1.8 NNW 19 20 10 11 1019.5 1020.4 0.0
29/08:30pm 7.5 3.2 3.2 74 1.9 NNW 15 17 8 9 1019.5 - 0.0
29/08:00pm 7.6 2.5 3.1 73 2.0 NNW 19 20 10 11 1019.4 1020.3 0.0
29/07:30pm 8.6 3.3 3.2 69 2.4 NNW 20 22 11 12 1019.2 - 0.0
29/07:00pm 8.9 3.8 2.9 66 2.7 NW 19 20 10 11 1019.2 1020.1 0.0
29/06:30pm 9.3 4.2 3.1 65 2.8 NW 19 22 10 12 1018.9 - 0.0
29/06:00pm 8.9 4.1 2.7 65 2.7 WNW 17 20 9 11 1018.9 1019.8 0.0
29/05:30pm 9.8 5.3 2.4 60 3.3 WNW 15 17 8 9 1018.5 - 0.0
29/05:00pm 12.6 6.8 2.2 49 4.7 WNW 22 32 12 17 1017.9 1018.8 0.0
29/04:30pm 13.6 7.1 2.5 47 5.1 WNW 26 35 14 19 1017.8 - 0.0
29/04:00pm 14.3 6.3 1.6 42 5.8 W 33 43 18 23 1017.8 1018.7 0.0
29/03:30pm 14.8 7.4 2.0 42 5.9 WNW 30 46 16 25 1017.5 - 0.0
29/03:00pm 15.1 6.2 3.0 44 5.7 WNW 39 46 21 25 1017.5 1018.3 0.0
29/02:30pm 15.1 7.4 3.3 45 5.6 NW 33 41 18 22 1017.9 - 0.0
29/02:00pm 15.2 7.7 3.7 46 5.5 WNW 32 44 17 24 1018.1 1019.0 0.0

Other Formats:

Comma delimited format used in spreadsheet applications
http://www.bom.gov.au/fwo/IDN60801/IDN60801.94729.axf

JavaScript Object Notation format (JSON) in row-major order
http://www.bom.gov.au/fwo/IDN60801/IDN60801.94729.json